Time;durP1;ratioP1;P1;durP2;ratioP2;P2;SDS_P1;SDS_P2;PMS_P1;PMS_P2;Temp;Humidity;BMP_temperature;BMP_pressure;BME280_temperature;BME280_humidity;BME280_pressure;Samples;Min_cycle;Max_cycle;Signal;HPM_P1;HPM_P2
2022/06/28 00:00:11;;;;;;;9.73;3.90;;;22.60;99.90;;;;;;5093064;28;20060;-79
2022/06/28 00:02:37;;;;;;;6.50;4.57;;;22.50;99.90;;;;;;5091696;28;20463;-79
2022/06/28 00:05:04;;;;;;;7.18;3.80;;;22.50;99.90;;;;;;5092840;28;20088;-80
2022/06/28 00:07:30;;;;;;;5.03;3.83;;;22.50;99.90;;;;;;5091354;28;20024;-79
2022/06/28 00:09:56;;;;;;;10.20;3.85;;;22.40;99.90;;;;;;5091548;28;20044;-79
2022/06/28 00:12:21;;;;;;;10.27;3.88;;;22.40;99.90;;;;;;5092900;28;20024;-79
2022/06/28 00:17:31;;;;;;;6.03;3.58;;;22.40;99.90;;;;;;5092839;28;20055;-79
2022/06/28 00:19:57;;;;;;;9.35;3.67;;;22.40;99.90;;;;;;5092872;28;20464;-79
2022/06/28 00:22:23;;;;;;;4.53;3.17;;;22.40;99.90;;;;;;5091426;28;20027;-79
2022/06/28 00:24:48;;;;;;;8.73;3.15;;;22.40;99.90;;;;;;5092694;28;20111;-80
2022/06/28 00:27:14;;;;;;;5.53;3.70;;;22.30;99.90;;;;;;5091291;28;20437;-79
2022/06/28 00:29:39;;;;;;;11.07;4.22;;;22.40;99.90;;;;;;5092465;28;20028;-79
2022/06/28 00:32:05;;;;;;;8.60;3.15;;;22.40;99.90;;;;;;5092490;28;20498;-79
2022/06/28 00:34:31;;;;;;;4.85;3.58;;;22.30;99.90;;;;;;5092591;28;20475;-79
2022/06/28 00:36:57;;;;;;;9.32;3.70;;;22.30;99.90;;;;;;5092454;28;20031;-79
2022/06/28 00:39:23;;;;;;;4.88;3.00;;;22.40;99.90;;;;;;5091106;28;20038;-79
2022/06/28 00:41:49;;;;;;;3.72;3.22;;;22.30;99.90;;;;;;5091160;28;20020;-81
2022/06/28 00:44:15;;;;;;;8.77;3.17;;;22.30;99.90;;;;;;5092360;28;20024;-79
2022/06/28 00:46:41;;;;;;;11.93;4.18;;;22.20;99.90;;;;;;5091696;28;20016;-79
2022/06/28 00:49:07;;;;;;;6.25;3.38;;;22.20;99.90;;;;;;5091963;28;20024;-79
2022/06/28 00:51:32;;;;;;;7.03;4.05;;;22.20;99.90;;;;;;5090879;28;20619;-78
2022/06/28 00:53:59;;;;;;;3.97;3.50;;;22.20;99.90;;;;;;5092175;28;20020;-79
2022/06/28 00:56:25;;;;;;;5.65;3.58;;;22.10;99.90;;;;;;5090850;28;20464;-79
2022/06/28 00:58:55;;;;;;;6.80;4.10;;;22.10;99.90;;;;;;5091922;28;20523;-80
2022/06/28 01:01:22;;;;;;;8.32;4.28;;;22.00;99.90;;;;;;5092088;28;20016;-79
2022/06/28 01:03:48;;;;;;;5.32;4.03;;;22.00;99.90;;;;;;5092045;28;20452;-80
2022/06/28 01:06:13;;;;;;;7.20;3.65;;;21.90;99.90;;;;;;5092113;28;20097;-80
2022/06/28 01:08:40;;;;;;;4.72;4.15;;;21.90;99.90;;;;;;5090691;28;20386;-79
2022/06/28 01:11:21;;;;;;;7.70;3.92;;;21.90;99.90;;;;;;5090774;28;20032;-80
2022/06/28 01:13:48;;;;;;;8.32;4.20;;;21.90;99.90;;;;;;5091981;28;20104;-79
2022/06/28 01:16:14;;;;;;;14.65;4.38;;;21.80;99.90;;;;;;5091842;28;20511;-79
2022/06/28 01:18:40;;;;;;;5.85;4.38;;;21.80;99.90;;;;;;5091879;28;20037;-79
2022/06/28 01:21:06;;;;;;;5.60;4.07;;;21.80;99.90;;;;;;5090701;28;20033;-79
2022/06/28 01:23:32;;;;;;;6.78;4.38;;;21.80;99.90;;;;;;5090563;28;20379;-79
2022/06/28 01:25:58;;;;;;;5.05;4.25;;;21.80;99.90;;;;;;5091795;28;20095;-79
2022/06/28 01:28:24;;;;;;;8.07;5.10;;;21.80;99.90;;;;;;5091743;28;20039;-80
2022/06/28 01:30:50;;;;;;;4.78;4.00;;;21.80;99.90;;;;;;5090554;28;20036;-80
2022/06/28 01:33:16;;;;;;;7.90;4.78;;;21.80;99.90;;;;;;5091782;28;20031;-79
2022/06/28 01:35:42;;;;;;;5.70;4.53;;;21.80;99.90;;;;;;5091799;28;20016;-79
2022/06/28 01:38:10;;;;;;;8.82;5.00;;;21.80;99.90;;;;;;5090352;28;20030;-79
2022/06/28 01:40:35;;;;;;;16.27;5.28;;;21.90;99.90;;;;;;5091772;28;20020;-79
2022/06/28 01:43:01;;;;;;;7.55;4.80;;;21.90;99.90;;;;;;5090448;28;20533;-79
2022/06/28 01:45:28;;;;;;;10.48;4.63;;;22.00;99.90;;;;;;5090466;28;20432;-79
2022/06/28 01:47:54;;;;;;;7.53;5.07;;;22.00;99.90;;;;;;5091701;28;20024;-79
2022/06/28 01:50:20;;;;;;;7.93;4.53;;;22.00;99.90;;;;;;5091603;28;20383;-79
2022/06/28 01:52:46;;;;;;;5.07;4.07;;;22.00;99.90;;;;;;5090353;28;20035;-80
2022/06/28 01:55:13;;;;;;;5.90;4.40;;;22.00;99.90;;;;;;5090304;28;20028;-79
2022/06/28 01:57:39;;;;;;;10.55;4.13;;;22.10;99.90;;;;;;5091455;28;20024;-78
2022/06/28 02:00:08;;;;;;;7.22;3.72;;;22.10;99.90;;;;;;5095371;28;20024;-79
2022/06/28 02:02:34;;;;;;;6.25;3.60;;;22.10;99.90;;;;;;5093998;28;20468;-79
2022/06/28 02:05:00;;;;;;;9.77;3.72;;;22.10;99.90;;;;;;5095146;28;20039;-79
2022/06/28 02:07:26;;;;;;;8.70;3.85;;;22.10;99.90;;;;;;5095106;28;20103;-79
2022/06/28 02:09:52;;;;;;;8.38;3.78;;;22.10;99.90;;;;;;5093694;28;20139;-79
2022/06/28 02:12:17;;;;;;;9.63;3.78;;;22.00;99.90;;;;;;5095019;28;20032;-79
2022/06/28 02:14:43;;;;;;;12.52;3.95;;;22.00;99.90;;;;;;5095184;28;20430;-79
2022/06/28 02:17:09;;;;;;;5.68;3.35;;;22.00;99.90;;;;;;5093795;28;20020;-79
2022/06/28 02:19:35;;;;;;;7.68;3.80;;;22.00;99.90;;;;;;5093531;28;20020;-79
2022/06/28 02:22:00;;;;;;;4.28;3.25;;;22.00;99.90;;;;;;5095177;28;20383;-79
2022/06/28 02:24:26;;;;;;;8.48;3.17;;;22.10;99.90;;;;;;5095129;28;20062;-80
2022/06/28 02:26:52;;;;;;;3.83;3.42;;;22.20;99.90;;;;;;5093664;28;20926;-80
2022/06/28 02:29:17;;;;;;;4.30;2.60;;;22.30;99.90;;;;;;5094697;28;20028;-79
2022/06/28 02:31:43;;;;;;;7.13;2.85;;;22.60;99.90;;;;;;5094969;28;20551;-79
2022/06/28 02:40:21;;;;;;;5.53;2.53;;;22.60;99.90;;;;;;5093604;28;20109;-80
2022/06/28 02:42:22;;;;;;;9.48;2.70;;;22.80;99.90;;;;;;5094530;28;20446;-80
2022/06/28 02:44:48;;;;;;;4.82;3.10;;;22.70;99.90;;;;;;5093327;28;20051;-80
2022/06/28 02:47:14;;;;;;;4.03;1.98;;;22.70;99.90;;;;;;5094723;28;20063;-80
2022/06/28 02:49:39;;;;;;;7.25;2.92;;;22.70;99.90;;;;;;5093108;28;20092;-79
2022/06/28 02:52:05;;;;;;;6.85;2.58;;;22.60;99.90;;;;;;5093098;28;20020;-79
2022/06/28 02:54:31;;;;;;;4.93;2.58;;;22.60;99.90;;;;;;5093114;28;20497;-79
2022/06/28 02:56:56;;;;;;;3.22;2.63;;;22.50;99.90;;;;;;5094450;28;20020;-80
2022/06/28 02:59:22;;;;;;;5.78;2.72;;;22.50;99.90;;;;;;5094312;28;20016;-80
2022/06/28 03:01:47;;;;;;;6.75;2.47;;;22.50;99.90;;;;;;5094399;28;20028;-78
2022/06/28 03:04:13;;;;;;;4.93;2.40;;;22.50;99.90;;;;;;5094279;28;20038;-80
2022/06/28 03:06:39;;;;;;;6.95;2.47;;;22.40;99.90;;;;;;5094462;28;20467;-79
2022/06/28 03:09:04;;;;;;;7.57;2.83;;;22.30;99.90;;;;;;5092695;28;20026;-80
2022/06/28 03:11:30;;;;;;;4.18;2.17;;;22.30;99.90;;;;;;5092845;28;20046;-79
2022/06/28 03:13:56;;;;;;;3.03;2.20;;;22.30;99.90;;;;;;5092639;28;20024;-80
2022/06/28 03:16:22;;;;;;;3.90;2.53;;;22.30;99.90;;;;;;5092746;28;20024;-79
2022/06/28 03:18:47;;;;;;;7.28;2.72;;;22.20;99.90;;;;;;5093875;28;20390;-79
2022/06/28 03:21:13;;;;;;;6.50;2.53;;;22.20;99.90;;;;;;5094017;28;20032;-78
2022/06/28 03:23:39;;;;;;;4.90;2.80;;;22.20;99.90;;;;;;5093886;28;20020;-79
2022/06/28 03:26:04;;;;;;;2.83;2.15;;;22.20;99.90;;;;;;5093913;28;20035;-79
2022/06/28 03:28:30;;;;;;;4.72;2.28;;;22.20;99.90;;;;;;5093722;28;20020;-78
2022/06/28 03:30:55;;;;;;;6.18;2.80;;;22.30;99.90;;;;;;5093594;28;20039;-79
2022/06/28 03:33:21;;;;;;;7.63;2.33;;;22.30;99.90;;;;;;5092605;28;20039;-79
2022/06/28 03:35:47;;;;;;;6.18;2.13;;;22.30;99.90;;;;;;5095268;28;20028;-79
2022/06/28 03:38:12;;;;;;;8.38;2.60;;;22.30;99.90;;;;;;5093151;28;20074;-79
2022/06/28 03:40:38;;;;;;;7.97;2.85;;;22.40;99.90;;;;;;5092288;28;20028;-79
2022/06/28 03:43:05;;;;;;;4.78;2.45;;;22.30;99.90;;;;;;5092264;28;20031;-79
2022/06/28 03:45:30;;;;;;;9.90;2.97;;;22.30;99.90;;;;;;5093216;28;20433;-79
2022/06/28 03:47:57;;;;;;;6.35;2.50;;;22.40;99.90;;;;;;5094360;28;20046;-78
2022/06/28 03:50:23;;;;;;;4.20;2.28;;;22.30;99.90;;;;;;5093000;28;20388;-78
2022/06/28 03:52:49;;;;;;;4.13;2.63;;;22.30;99.90;;;;;;5093161;28;20027;-79
2022/06/28 03:55:14;;;;;;;5.43;3.00;;;22.30;99.90;;;;;;5093993;28;20375;-79
2022/06/28 03:57:40;;;;;;;9.35;3.13;;;22.30;99.90;;;;;;5092028;28;20042;-79
2022/06/28 04:00:06;;;;;;;6.68;2.85;;;22.30;99.90;;;;;;5091866;28;20024;-78
2022/06/28 04:02:32;;;;;;;4.10;2.10;;;22.30;99.90;;;;;;5093244;28;20055;-79
2022/06/28 04:04:57;;;;;;;3.80;2.90;;;22.20;99.90;;;;;;5092783;28;20570;-79
2022/06/28 04:07:23;;;;;;;5.85;2.50;;;22.20;99.90;;;;;;5091645;28;20118;-79
2022/06/28 04:09:49;;;;;;;3.80;2.55;;;22.20;99.90;;;;;;5092651;28;20036;-79
2022/06/28 04:12:16;;;;;;;6.72;2.33;;;22.20;99.90;;;;;;5091452;28;20027;-79
2022/06/28 04:14:42;;;;;;;8.02;2.58;;;22.20;99.90;;;;;;5092784;28;20103;-79
2022/06/28 04:17:07;;;;;;;4.43;2.30;;;22.20;99.90;;;;;;5091355;28;20119;-78
2022/06/28 04:19:33;;;;;;;5.45;2.63;;;22.20;99.90;;;;;;5091293;28;20039;-78
2022/06/28 04:21:59;;;;;;;2.75;2.53;;;22.10;99.90;;;;;;5091097;28;20028;-79
2022/06/28 04:24:25;;;;;;;8.48;3.67;;;22.10;99.90;;;;;;5092782;28;20024;-79
2022/06/28 04:26:51;;;;;;;3.17;2.42;;;22.10;99.90;;;;;;5091284;28;20031;-79
2022/06/28 04:29:17;;;;;;;8.55;3.17;;;22.10;99.90;;;;;;5091191;28;20024;-80
2022/06/28 04:31:42;;;;;;;4.65;2.28;;;22.10;99.90;;;;;;5092355;28;20487;-78
2022/06/28 04:34:08;;;;;;;3.13;2.58;;;22.10;99.90;;;;;;5092421;28;20031;-79
2022/06/28 04:36:34;;;;;;;4.88;3.75;;;22.10;99.90;;;;;;5091250;28;20035;-79
2022/06/28 04:38:59;;;;;;;5.15;2.97;;;22.10;99.90;;;;;;5091014;28;20555;-78
2022/06/28 04:41:25;;;;;;;5.95;2.33;;;22.10;99.90;;;;;;5092419;28;20114;-77
2022/06/28 04:43:53;;;;;;;3.13;2.40;;;22.10;99.90;;;;;;5092493;28;20028;-77
2022/06/28 04:46:22;;;;;;;5.32;2.45;;;22.30;99.90;;;;;;5092369;28;20038;-77
2022/06/28 04:48:48;;;;;;;5.65;2.92;;;22.70;99.90;;;;;;5092445;28;20485;-78
2022/06/28 04:51:14;;;;;;;7.25;3.92;;;23.00;99.90;;;;;;5093769;28;20067;-78
2022/06/28 04:53:42;;;;;;;5.85;2.70;;;23.10;99.90;;;;;;5092133;28;20063;-78
2022/06/28 04:56:09;;;;;;;6.40;2.60;;;23.20;99.90;;;;;;5092152;28;20086;-78
2022/06/28 04:58:35;;;;;;;6.03;2.70;;;23.20;99.90;;;;;;5092304;28;20020;-77
2022/06/28 05:01:01;;;;;;;3.40;2.90;;;23.20;99.90;;;;;;5092469;28;20077;-78
2022/06/28 05:03:27;;;;;;;3.88;2.38;;;23.20;99.90;;;;;;5092548;28;20024;-78
2022/06/28 05:05:53;;;;;;;4.43;2.13;;;23.20;99.90;;;;;;5092254;28;20055;-78
2022/06/28 05:08:19;;;;;;;4.22;2.53;;;23.00;99.90;;;;;;5092219;28;20024;-81
2022/06/28 05:10:45;;;;;;;8.00;2.83;;;22.90;99.90;;;;;;5092261;28;20032;-78
2022/06/28 05:13:10;;;;;;;3.47;2.15;;;23.00;99.90;;;;;;5092539;28;20092;-78
2022/06/28 05:15:36;;;;;;;6.05;2.70;;;23.00;99.90;;;;;;5092258;28;20032;-78
2022/06/28 05:18:02;;;;;;;3.30;2.30;;;23.00;99.90;;;;;;5092218;28;20035;-77
2022/06/28 05:20:28;;;;;;;9.40;2.50;;;23.20;99.90;;;;;;5092174;28;20027;-79
2022/06/28 05:22:54;;;;;;;3.60;2.40;;;23.30;99.90;;;;;;5092051;28;20511;-78
2022/06/28 05:25:19;;;;;;;4.60;2.50;;;23.50;99.90;;;;;;5092133;28;20035;-79
2022/06/28 05:27:45;;;;;;;6.75;2.13;;;23.60;99.90;;;;;;5090778;28;20375;-77
2022/06/28 05:30:11;;;;;;;4.82;2.75;;;23.80;99.90;;;;;;5091985;28;20040;-78
2022/06/28 05:32:37;;;;;;;6.68;3.67;;;23.90;99.90;;;;;;5094025;28;20983;-78
2022/06/28 05:35:04;;;;;;;4.40;3.20;;;24.00;99.90;;;;;;5096310;28;20024;-79
2022/06/28 05:37:29;;;;;;;4.28;3.28;;;24.00;99.90;;;;;;5096214;28;20487;-79
2022/06/28 05:39:55;;;;;;;2.70;2.13;;;24.00;99.90;;;;;;5096288;28;20028;-79
2022/06/28 05:42:20;;;;;;;3.88;2.35;;;24.10;99.90;;;;;;5096137;28;20024;-79
2022/06/28 05:44:46;;;;;;;3.00;2.10;;;24.20;99.90;;;;;;5094783;28;20447;-78
2022/06/28 05:47:12;;;;;;;5.13;1.60;;;24.40;99.90;;;;;;5095947;28;20028;-78
2022/06/28 05:49:38;;;;;;;6.28;1.80;;;24.60;99.90;;;;;;5095672;28;20727;-78
2022/06/28 05:52:05;;;;;;;1.90;1.13;;;24.80;99.90;;;;;;5095563;28;20024;-78
2022/06/28 05:54:31;;;;;;;7.63;2.17;;;25.00;99.90;;;;;;5094269;28;20062;-78
2022/06/28 05:56:57;;;;;;;2.08;1.35;;;25.30;98.70;;;;;;5095711;28;20055;-79
2022/06/28 05:59:23;;;;;;;5.20;2.08;;;25.70;99.90;;;;;;5095765;28;20031;-78
2022/06/28 06:01:48;;;;;;;12.85;2.25;;;25.80;99.90;;;;;;5095628;28;20149;-78
2022/06/28 06:04:14;;;;;;;4.30;1.70;;;26.00;99.90;;;;;;5094636;28;20054;-79
2022/06/28 06:06:40;;;;;;;4.80;2.38;;;26.00;99.90;;;;;;5095870;28;20035;-76
2022/06/28 06:09:06;;;;;;;3.72;1.65;;;26.10;99.50;;;;;;5095398;28;20035;-77
2022/06/28 06:11:32;;;;;;;4.90;2.00;;;26.20;96.70;;;;;;5095236;28;20039;-76
2022/06/28 06:13:58;;;;;;;3.55;2.10;;;26.40;97.00;;;;;;5095428;28;20020;-77
2022/06/28 06:16:23;;;;;;;3.17;1.60;;;26.60;99.90;;;;;;5095581;28;20141;-77
2022/06/28 06:18:49;;;;;;;2.05;1.30;;;26.80;99.90;;;;;;5095264;28;20028;-76
2022/06/28 06:21:15;;;;;;;6.15;1.80;;;26.80;99.90;;;;;;5095479;28;20043;-77
2022/06/28 06:23:41;;;;;;;4.70;1.98;;;;;;;;;;5095271;28;20502;-77
2022/06/28 06:26:06;;;;;;;2.28;1.88;;;26.40;97.00;;;;;;5094079;28;20028;-77
2022/06/28 06:28:34;;;;;;;3.90;1.75;;;26.20;97.50;;;;;;5095238;28;20020;-76
2022/06/28 06:31:00;;;;;;;1.33;1.20;;;26.00;98.40;;;;;;5095304;28;20036;-77
2022/06/28 06:33:26;;;;;;;1.50;1.40;;;25.90;99.30;;;;;;5095179;28;20030;-77
2022/06/28 06:35:51;;;;;;;1.52;1.13;;;25.90;99.90;;;;;;5093862;28;20110;-76
2022/06/28 06:38:17;;;;;;;3.83;1.40;;;26.00;99.40;;;;;;5094835;28;20083;-77
2022/06/28 06:40:42;;;;;;;5.85;1.77;;;26.20;99.50;;;;;;5095018;28;20024;-77
2022/06/28 06:43:08;;;;;;;4.15;1.17;;;26.40;98.30;;;;;;5093561;28;20028;-76
2022/06/28 06:45:34;;;;;;;1.75;1.17;;;26.60;96.90;;;;;;5094512;28;20111;-76
2022/06/28 06:48:00;;;;;;;1.52;0.90;;;26.70;96.30;;;;;;5093543;28;20063;-76
2022/06/28 06:50:25;;;;;;;4.55;1.27;;;26.80;96.10;;;;;;5094697;28;20032;-78
2022/06/28 06:52:51;;;;;;;1.33;1.10;;;26.70;95.60;;;;;;5093783;28;20031;-77
2022/06/28 06:55:17;;;;;;;3.83;1.23;;;26.70;95.10;;;;;;5095072;28;20403;-77
2022/06/28 06:57:43;;;;;;;5.85;1.08;;;26.50;95.30;;;;;;5094963;28;20020;-77
2022/06/28 07:00:10;;;;;;;1.85;1.17;;;26.60;95.80;;;;;;5093523;28;20032;-76
2022/06/28 07:02:42;;;;;;;2.13;1.88;;;26.80;96.10;;;;;;5094865;28;20021;-79
2022/06/28 07:05:10;;;;;;;1.17;1.10;;;27.00;95.20;;;;;;5093432;28;20048;-77
2022/06/28 07:07:35;;;;;;;2.45;0.80;;;27.20;94.90;;;;;;5093485;28;20050;-80
2022/06/28 07:10:03;;;;;;;3.40;1.30;;;27.30;94.50;;;;;;5093346;28;20119;-77
2022/06/28 07:12:29;;;;;;;1.20;1.10;;;27.10;93.60;;;;;;5094552;28;20050;-78
2022/06/28 07:14:55;;;;;;;4.07;1.33;;;27.10;94.30;;;;;;5094433;28;20024;-76
2022/06/28 07:17:21;;;;;;;2.38;1.13;;;27.10;94.30;;;;;;5094235;28;20154;-76
2022/06/28 07:19:46;;;;;;;3.42;1.27;;;27.10;94.20;;;;;;5094237;28;20066;-76
2022/06/28 07:22:12;;;;;;;3.47;1.20;;;27.00;93.70;;;;;;5094316;28;20031;-76
2022/06/28 07:24:38;;;;;;;6.10;2.00;;;27.00;93.90;;;;;;5093980;28;20475;-77
2022/06/28 07:27:04;;;;;;;1.38;0.75;;;26.90;94.20;;;;;;5094066;28;20152;-76
2022/06/28 07:29:29;;;;;;;3.15;0.88;;;26.90;93.80;;;;;;5093654;28;20028;-76
2022/06/28 07:31:56;;;;;;;3.22;1.45;;;26.80;92.70;;;;;;5093831;28;20082;-76
2022/06/28 07:34:22;;;;;;;1.35;1.02;;;26.80;92.50;;;;;;5094050;28;20089;-76
2022/06/28 07:36:48;;;;;;;1.65;0.60;;;26.80;91.70;;;;;;5094104;28;20842;-78
2022/06/28 07:39:14;;;;;;;3.78;1.42;;;26.80;92.00;;;;;;5093816;28;20485;-76
2022/06/28 07:41:39;;;;;;;3.38;1.55;;;26.80;92.70;;;;;;5093877;28;20513;-76
2022/06/28 07:44:05;;;;;;;2.00;1.40;;;26.80;92.90;;;;;;5093063;28;20383;-76
2022/06/28 07:46:30;;;;;;;1.05;1.00;;;26.80;92.30;;;;;;5093900;28;20114;-76
2022/06/28 07:48:56;;;;;;;2.25;0.90;;;26.70;92.50;;;;;;5093421;28;20107;-77
2022/06/28 07:54:06;;;;;;;2.88;1.10;;;27.10;92.80;;;;;;5093701;28;20039;-76
2022/06/28 07:56:32;;;;;;;2.60;1.10;;;27.20;92.40;;;;;;5091213;28;20024;-77
2022/06/28 07:58:57;;;;;;;1.25;0.85;;;27.40;92.20;;;;;;5091290;28;20103;-90
2022/06/28 08:01:23;;;;;;;1.90;1.10;;;27.50;91.60;;;;;;5094424;28;20027;-79
2022/06/28 08:03:48;;;;;;;2.88;0.82;;;27.30;90.20;;;;;;5096167;28;20020;-75
2022/06/28 08:06:14;;;;;;;1.08;1.05;;;27.20;90.90;;;;;;5096577;28;20686;-81
2022/06/28 08:08:41;;;;;;;1.20;0.80;;;27.30;91.10;;;;;;5102842;28;20077;-76
2022/06/28 08:11:06;;;;;;;5.07;0.77;;;27.50;91.80;;;;;;5104142;28;20051;-83
2022/06/28 08:13:32;;;;;;;0.90;0.80;;;27.70;91.90;;;;;;5098204;28;20020;-75
2022/06/28 08:15:59;;;;;;;3.20;1.55;;;27.90;90.70;;;;;;5097053;28;20028;-74
2022/06/28 08:18:25;;;;;;;0.60;0.60;;;28.00;90.20;;;;;;5099146;28;20028;-93
2022/06/28 08:20:51;;;;;;;0.68;0.68;;;28.00;86.40;;;;;;5096992;28;20039;-78
2022/06/28 08:23:16;;;;;;;3.25;0.68;;;28.00;86.70;;;;;;5091213;28;20028;-75
2022/06/28 08:25:43;;;;;;;2.50;0.60;;;27.80;85.40;;;;;;5093917;28;20028;-82
2022/06/28 08:28:12;;;;;;;1.52;0.80;;;27.50;85.90;;;;;;5093323;28;20051;-78
2022/06/28 08:30:39;;;;;;;0.60;0.60;;;27.50;86.60;;;;;;5093129;28;20057;-76
2022/06/28 08:33:04;;;;;;;1.55;1.08;;;27.70;87.50;;;;;;5093443;28;20466;-77
2022/06/28 08:35:30;;;;;;;3.20;0.70;;;28.00;88.60;;;;;;5093041;28;20035;-78
2022/06/28 08:37:56;;;;;;;6.07;0.93;;;28.30;86.20;;;;;;5092438;28;20032;-89
2022/06/28 08:40:25;;;;;;;1.52;0.80;;;28.50;87.00;;;;;;5093048;28;20028;-77
2022/06/28 08:42:54;;;;;;;0.93;0.63;;;28.70;85.90;;;;;;5092108;28;20012;-77
2022/06/28 08:45:21;;;;;;;2.25;1.33;;;28.90;84.10;;;;;;5091094;28;20174;-75
2022/06/28 08:47:49;;;;;;;1.00;0.60;;;29.00;83.70;;;;;;5092156;28;20121;-76
2022/06/28 08:50:25;;;;;;;1.40;0.57;;;29.10;83.10;;;;;;5092222;28;20035;-76
2022/06/28 08:52:53;;;;;;;2.10;0.60;;;29.20;83.00;;;;;;5091455;28;20025;-77
2022/06/28 08:55:19;;;;;;;1.83;0.85;;;29.20;80.30;;;;;;5092339;28;20528;-78
2022/06/28 08:57:45;;;;;;;0.93;0.70;;;29.20;80.60;;;;;;5092314;28;20032;-77
2022/06/28 09:00:12;;;;;;;1.92;0.50;;;29.10;81.00;;;;;;5092656;28;20455;-88
2022/06/28 09:02:38;;;;;;;1.05;0.45;;;29.00;80.50;;;;;;5093829;28;20017;-79
2022/06/28 09:05:04;;;;;;;0.75;0.70;;;28.90;80.70;;;;;;5093793;28;20044;-79
2022/06/28 09:07:30;;;;;;;0.50;0.50;;;29.10;81.50;;;;;;5100531;28;20028;-84
2022/06/28 09:09:56;;;;;;;0.50;0.50;;;29.20;80.20;;;;;;5093843;28;20039;-89
2022/06/28 09:12:22;;;;;;;0.60;0.55;;;29.40;79.40;;;;;;5093287;28;20024;-88
2022/06/28 09:14:48;;;;;;;2.53;1.05;;;29.70;79.10;;;;;;5093155;28;20580;-77
2022/06/28 09:17:28;;;;;;;1.55;0.70;;;29.90;78.10;;;;;;5093536;28;20378;-87
2022/06/28 09:20:03;;;;;;;1.15;0.70;;;30.30;77.30;;;;;;5093502;28;20020;-88
2022/06/28 09:22:37;;;;;;;1.48;0.50;;;30.60;74.90;;;;;;5093348;28;20079;-78
2022/06/28 09:25:27;;;;;;;3.30;0.95;;;30.70;73.70;;;;;;5093579;28;20107;-85
2022/06/28 09:27:57;;;;;;;1.65;0.60;;;30.90;72.80;;;;;;5092986;28;20529;-88
2022/06/28 09:30:25;;;;;;;0.70;0.40;;;31.10;73.00;;;;;;5092870;28;20353;-77
2022/06/28 09:32:51;;;;;;;1.60;0.63;;;31.30;72.10;;;;;;5093050;28;20021;-82
2022/06/28 09:35:17;;;;;;;1.48;0.65;;;31.50;72.40;;;;;;5092137;28;20032;-82
2022/06/28 09:37:47;;;;;;;1.65;0.47;;;31.40;68.90;;;;;;5092508;28;20081;-77
2022/06/28 09:40:25;;;;;;;2.03;0.80;;;31.30;69.90;;;;;;5090497;28;20024;-77
2022/06/28 09:43:08;;;;;;;1.20;0.70;;;31.30;69.10;;;;;;5075581;28;20040;-77
2022/06/28 09:45:37;;;;;;;2.50;0.75;;;31.30;69.60;;;;;;5071281;28;20020;-77
2022/06/28 09:48:03;;;;;;;0.50;0.50;;;31.30;72.20;;;;;;5070063;28;20035;-78
2022/06/28 09:50:32;;;;;;;2.22;0.40;;;31.30;72.90;;;;;;5071426;28;20055;-80
2022/06/28 09:53:00;;;;;;;1.30;0.60;;;31.40;72.50;;;;;;5071594;28;20020;-79
2022/06/28 09:55:29;;;;;;;1.73;0.80;;;31.40;72.60;;;;;;5070376;28;20056;-79
2022/06/28 09:57:55;;;;;;;1.73;0.43;;;31.40;70.60;;;;;;5071433;28;20017;-79
2022/06/28 10:00:24;;;;;;;2.75;0.60;;;31.40;69.80;;;;;;5070327;28;20047;-79
2022/06/28 10:02:51;;;;;;;1.80;0.75;;;31.20;68.40;;;;;;5071536;28;20025;-79
2022/06/28 10:05:17;;;;;;;2.63;0.77;;;31.10;70.60;;;;;;5071307;28;20086;-80
2022/06/28 10:07:44;;;;;;;1.10;0.73;;;31.10;71.90;;;;;;5071618;28;20017;-79
2022/06/28 10:10:10;;;;;;;1.20;0.60;;;31.20;69.80;;;;;;5071408;28;20092;-79
2022/06/28 10:15:24;;;;;;;1.55;0.52;;;31.10;69.00;;;;;;5071719;28;20055;-79
2022/06/28 10:18:14;;;;;;;2.80;0.73;;;30.80;68.90;;;;;;5071557;28;20444;-79
2022/06/28 10:20:43;;;;;;;2.05;1.25;;;30.70;70.30;;;;;;5073883;28;20487;-79
2022/06/28 10:23:33;;;;;;;2.13;0.85;;;30.70;71.60;;;;;;5075116;28;20070;-78
2022/06/28 10:26:03;;;;;;;2.38;0.60;;;30.70;71.50;;;;;;5075395;28;20029;-86
2022/06/28 10:28:42;;;;;;;2.08;0.98;;;30.80;72.10;;;;;;5075817;28;20020;-87
2022/06/28 10:31:23;;;;;;;2.63;0.73;;;30.90;73.10;;;;;;5076402;28;20028;-87
2022/06/28 10:33:57;;;;;;;0.60;0.60;;;31.10;72.40;;;;;;5076027;28;20021;-86
2022/06/28 10:36:24;;;;;;;1.25;0.80;;;31.20;72.30;;;;;;5075526;28;20029;-87
2022/06/28 10:39:09;;;;;;;3.05;1.00;;;31.20;71.20;;;;;;5075543;28;20027;-87
2022/06/28 10:41:50;;;;;;;0.63;0.40;;;31.30;71.20;;;;;;5075495;28;20024;-87
2022/06/28 10:44:19;;;;;;;1.95;1.30;;;31.40;70.30;;;;;;5075306;28;20042;-86
2022/06/28 10:47:01;;;;;;;0.65;0.52;;;31.50;70.20;;;;;;5074493;28;20536;-85
2022/06/28 10:49:42;;;;;;;1.48;0.82;;;31.80;69.70;;;;;;5074422;28;20032;-85
2022/06/28 10:52:09;;;;;;;2.92;0.93;;;31.90;69.60;;;;;;5074451;28;20032;-86
2022/06/28 10:54:35;;;;;;;3.33;0.85;;;32.00;69.80;;;;;;5074674;28;20467;-85
2022/06/28 10:57:19;;;;;;;5.80;1.20;;;32.10;70.60;;;;;;5074715;28;20038;-87
2022/06/28 10:59:47;;;;;;;7.10;1.15;;;32.10;70.20;;;;;;5074496;28;20043;-87
2022/06/28 11:02:13;;;;;;;4.82;0.77;;;32.10;70.20;;;;;;5074989;28;20024;-87
2022/06/28 11:04:39;;;;;;;1.23;0.98;;;32.10;69.70;;;;;;5075870;28;20044;-88
2022/06/28 11:07:19;;;;;;;2.22;1.10;;;32.20;69.60;;;;;;5075086;28;20031;-88
2022/06/28 11:10:16;;;;;;;1.73;0.80;;;32.30;68.90;;;;;;5075535;28;20031;-88
2022/06/28 11:12:43;;;;;;;3.63;0.98;;;32.20;66.50;;;;;;5077209;28;20535;-89
2022/06/28 11:15:32;;;;;;;2.35;1.00;;;32.00;68.80;;;;;;5076480;28;20142;-88
2022/06/28 11:17:59;;;;;;;1.08;0.80;;;32.00;68.90;;;;;;5077027;28;20472;-88
2022/06/28 11:20:25;;;;;;;2.47;1.17;;;31.90;69.40;;;;;;5076825;28;20379;-88
2022/06/28 11:22:52;;;;;;;1.10;0.80;;;31.80;69.80;;;;;;5077139;28;20023;-88
2022/06/28 11:25:22;;;;;;;2.05;0.80;;;31.80;70.00;;;;;;5076208;28;20035;-86
2022/06/28 11:27:57;;;;;;;2.03;0.82;;;31.90;69.60;;;;;;5075493;28;20032;-86
2022/06/28 11:30:29;;;;;;;1.48;0.88;;;32.00;70.00;;;;;;5074262;28;20046;-83
2022/06/28 11:32:56;;;;;;;0.82;0.75;;;32.20;69.90;;;;;;5075977;28;20028;-83
2022/06/28 11:35:27;;;;;;;0.80;0.80;;;32.10;67.30;;;;;;5075679;28;20103;-84
2022/06/28 11:37:56;;;;;;;3.40;0.93;;;32.20;68.20;;;;;;5071432;28;20029;-84
2022/06/28 11:40:38;;;;;;;2.72;1.13;;;32.30;69.90;;;;;;5074143;28;20062;-83
2022/06/28 11:43:07;;;;;;;1.10;0.90;;;32.50;69.70;;;;;;5074756;28;20103;-84
2022/06/28 11:45:35;;;;;;;2.95;0.80;;;32.60;67.90;;;;;;5074125;28;20026;-85
2022/06/28 11:48:07;;;;;;;2.38;0.80;;;32.70;69.40;;;;;;5074115;28;20028;-84
2022/06/28 11:50:43;;;;;;;2.33;1.65;;;32.60;67.90;;;;;;5073719;28;20119;-84
2022/06/28 11:53:10;;;;;;;1.27;0.90;;;32.60;67.30;;;;;;5074459;28;20031;-83
2022/06/28 11:55:44;;;;;;;0.80;0.80;;;32.60;66.80;;;;;;5074243;28;20025;-84
2022/06/28 11:58:14;;;;;;;1.85;1.00;;;32.70;66.30;;;;;;5076679;28;20510;-83
2022/06/28 12:01:07;;;;;;;2.05;0.90;;;32.90;66.10;;;;;;5079031;28;20033;-85
2022/06/28 12:03:43;;;;;;;1.17;0.77;;;33.10;65.60;;;;;;5075826;28;20111;-84
2022/06/28 12:06:11;;;;;;;1.33;1.23;;;33.10;66.10;;;;;;5072595;28;20056;-87
2022/06/28 12:08:53;;;;;;;1.80;1.15;;;33.10;65.80;;;;;;5073428;28;20016;-85
2022/06/28 12:11:27;;;;;;;4.43;2.83;;;32.90;65.30;;;;;;5072940;28;20059;-84
2022/06/28 12:14:02;;;;;;;2.80;1.75;;;32.80;66.70;;;;;;5072354;28;20020;-84
2022/06/28 12:16:31;;;;;;;;;;;33.00;65.90;;;;;;5073256;28;20456;-85
2022/06/28 12:18:57;;;;;;;0.80;0.80;;;33.10;65.70;;;;;;5072819;28;19904;-86
2022/06/28 12:21:23;;;;;;;1.67;0.82;;;33.10;64.30;;;;;;5073647;28;20031;-85
2022/06/28 12:23:51;;;;;;;1.50;0.85;;;33.20;64.40;;;;;;5072496;28;20028;-85
2022/06/28 12:26:18;;;;;;;3.80;1.00;;;33.00;62.90;;;;;;5072651;28;20371;-84
2022/06/28 12:28:44;;;;;;;6.90;2.53;;;33.10;63.90;;;;;;5072165;28;20111;-84
2022/06/28 12:31:09;;;;;;;3.97;0.80;;;33.00;65.80;;;;;;5071977;28;20122;-85
2022/06/28 12:33:35;;;;;;;0.80;0.80;;;33.10;66.30;;;;;;5072757;28;20047;-85
2022/06/28 12:36:01;;;;;;;0.95;0.80;;;33.10;66.40;;;;;;5072973;28;20471;-84
2022/06/28 12:38:27;;;;;;;2.15;1.05;;;33.20;65.50;;;;;;5072864;28;20396;-83
2022/06/28 12:40:52;;;;;;;8.70;0.90;;;33.10;63.30;;;;;;5072503;28;20371;-84
2022/06/28 12:43:18;;;;;;;1.88;0.93;;;33.20;64.50;;;;;;5073145;28;20034;-84
2022/06/28 12:45:44;;;;;;;1.25;1.15;;;33.10;65.00;;;;;;5072381;28;20505;-84
2022/06/28 12:48:09;;;;;;;1.02;0.80;;;33.10;64.10;;;;;;5072751;28;20088;-84
2022/06/28 12:50:35;;;;;;;2.63;0.93;;;33.20;64.10;;;;;;5073801;28;20541;-84
2022/06/28 12:53:01;;;;;;;0.80;0.80;;;33.10;64.50;;;;;;5072155;28;20020;-84
2022/06/28 12:55:27;;;;;;;3.40;1.10;;;33.20;65.30;;;;;;5072414;28;20058;-84
2022/06/28 12:57:52;;;;;;;1.02;0.93;;;33.20;64.40;;;;;;5072532;28;20021;-85
2022/06/28 13:00:18;;;;;;;1.48;0.80;;;33.10;64.30;;;;;;5074249;28;20416;-87
2022/06/28 13:02:44;;;;;;;2.47;1.10;;;33.00;65.70;;;;;;5072953;28;20047;-88